sensor_id;sensor_type;location;lat;lon;timestamp;pressure;altitude;pressure_sealevel;temperature;humidity
79415;BME280;68864;44.972;19.612;2023-05-03T00:01:19;100732.13;;;17.07;42.79
79415;BME280;68864;44.972;19.612;2023-05-03T00:03:46;100734.16;;;17.07;43.00
79415;BME280;68864;44.972;19.612;2023-05-03T00:06:14;100736.97;;;17.07;42.76
79415;BME280;68864;44.972;19.612;2023-05-03T00:08:42;100736.56;;;17.05;42.75
79415;BME280;68864;44.972;19.612;2023-05-03T00:11:09;100730.53;;;16.99;42.88
79415;BME280;68864;44.972;19.612;2023-05-03T00:13:36;100731.34;;;16.93;43.09
79415;BME280;68864;44.972;19.612;2023-05-03T00:16:03;100732.94;;;16.87;43.31
79415;BME280;68864;44.972;19.612;2023-05-03T00:18:30;100726.13;;;16.81;43.45
79415;BME280;68864;44.972;19.612;2023-05-03T00:20:57;100720.47;;;16.74;43.95
79415;BME280;68864;44.972;19.612;2023-05-03T00:23:24;100731.31;;;16.72;43.99
79415;BME280;68864;44.972;19.612;2023-05-03T00:25:55;100725.72;;;16.68;44.31
79415;BME280;68864;44.972;19.612;2023-05-03T00:28:22;100732.13;;;16.65;44.32
79415;BME280;68864;44.972;19.612;2023-05-03T00:30:49;100729.31;;;16.61;44.41
79415;BME280;68864;44.972;19.612;2023-05-03T00:33:16;100726.50;;;16.61;44.56
79415;BME280;68864;44.972;19.612;2023-05-03T00:35:43;100732.09;;;16.58;44.70
79415;BME280;68864;44.972;19.612;2023-05-03T00:38:10;100726.06;;;16.52;44.86
79415;BME280;68864;44.972;19.612;2023-05-03T00:40:38;100727.28;;;16.48;44.88
79415;BME280;68864;44.972;19.612;2023-05-03T00:43:06;100732.91;;;16.48;44.82
79415;BME280;68864;44.972;19.612;2023-05-03T00:45:36;100729.66;;;16.46;45.08
79415;BME280;68864;44.972;19.612;2023-05-03T00:48:03;100732.47;;;16.42;44.95
79415;BME280;68864;44.972;19.612;2023-05-03T00:50:30;100722.84;;;16.40;45.33
79415;BME280;68864;44.972;19.612;2023-05-03T00:52:57;100733.69;;;16.41;45.43
79415;BME280;68864;44.972;19.612;2023-05-03T00:55:26;100728.03;;;16.38;45.38
79415;BME280;68864;44.972;19.612;2023-05-03T00:57:54;100729.25;;;16.37;45.58
79415;BME280;68864;44.972;19.612;2023-05-03T01:00:23;100727.22;;;16.19;46.16
79415;BME280;68864;44.972;19.612;2023-05-03T01:02:50;100735.66;;;16.30;45.71
79415;BME280;68864;44.972;19.612;2023-05-03T01:05:20;100730.84;;;16.27;45.96
79415;BME280;68864;44.972;19.612;2023-05-03T01:07:55;100735.66;;;16.26;45.86
79415;BME280;68864;44.972;19.612;2023-05-03T01:10:32;100736.88;;;16.22;45.99
79415;BME280;68864;44.972;19.612;2023-05-03T01:13:07;100736.84;;;16.18;46.20
79415;BME280;68864;44.972;19.612;2023-05-03T01:15:44;100740.88;;;16.21;46.23
79415;BME280;68864;44.972;19.612;2023-05-03T01:18:17;100735.22;;;16.14;46.31
79415;BME280;68864;44.972;19.612;2023-05-03T01:20:48;100725.16;;;16.09;46.65
79415;BME280;68864;44.972;19.612;2023-05-03T01:23:27;100732.81;;;16.09;46.61
79415;BME280;68864;44.972;19.612;2023-05-03T01:25:56;100734.78;;;15.98;46.79
79415;BME280;68864;44.972;19.612;2023-05-03T01:28:23;100733.97;;;15.94;46.91
79415;BME280;68864;44.972;19.612;2023-05-03T01:30:51;100731.13;;;15.90;47.06
79415;BME280;68864;44.972;19.612;2023-05-03T01:33:27;100727.47;;;15.82;47.37
79415;BME280;68864;44.972;19.612;2023-05-03T01:36:01;100734.72;;;15.80;47.12
79415;BME280;68864;44.972;19.612;2023-05-03T01:38:32;100733.09;;;15.75;47.29
79415;BME280;68864;44.972;19.612;2023-05-03T01:41:05;100732.69;;;15.77;47.44
79415;BME280;68864;44.972;19.612;2023-05-03T01:43:35;100737.91;;;15.78;47.37
79415;BME280;68864;44.972;19.612;2023-05-03T01:46:03;100739.91;;;15.74;47.31
79415;BME280;68864;44.972;19.612;2023-05-03T01:48:30;100744.69;;;15.67;47.63
79415;BME280;68864;44.972;19.612;2023-05-03T01:50:57;100735.84;;;15.61;47.92
79415;BME280;68864;44.972;19.612;2023-05-03T01:53:24;100738.53;;;15.50;48.18
79415;BME280;68864;44.972;19.612;2023-05-03T01:55:51;100736.59;;;15.55;47.98
79415;BME280;68864;44.972;19.612;2023-05-03T01:58:19;100739.81;;;15.53;48.09
79415;BME280;68864;44.972;19.612;2023-05-03T02:00:47;100738.22;;;15.56;47.91
79415;BME280;68864;44.972;19.612;2023-05-03T02:03:14;100739.00;;;15.56;47.75
79415;BME280;68864;44.972;19.612;2023-05-03T02:05:40;100744.97;;;15.51;47.93
79415;BME280;68864;44.972;19.612;2023-05-03T02:08:07;100750.16;;;15.49;48.04
79415;BME280;68864;44.972;19.612;2023-05-03T02:10:34;100750.53;;;15.40;48.48
79415;BME280;68864;44.972;19.612;2023-05-03T02:13:01;100754.97;;;15.41;48.40
79415;BME280;68864;44.972;19.612;2023-05-03T02:15:29;100745.72;;;15.41;48.29
79415;BME280;68864;44.972;19.612;2023-05-03T02:17:56;100752.53;;;15.40;48.72
79415;BME280;68864;44.972;19.612;2023-05-03T02:20:26;100748.50;;;15.37;48.37
79415;BME280;68864;44.972;19.612;2023-05-03T02:22:56;100749.31;;;15.38;48.66
79415;BME280;68864;44.972;19.612;2023-05-03T02:25:23;100748.50;;;15.37;48.52
79415;BME280;68864;44.972;19.612;2023-05-03T02:27:50;100753.34;;;15.40;48.31
79415;BME280;68864;44.972;19.612;2023-05-03T02:30:17;100760.56;;;15.41;48.36
79415;BME280;68864;44.972;19.612;2023-05-03T02:32:45;100763.34;;;15.38;48.49
79415;BME280;68864;44.972;19.612;2023-05-03T02:35:12;100758.91;;;15.33;48.62
79415;BME280;68864;44.972;19.612;2023-05-03T02:37:39;100764.94;;;15.35;48.77
79415;BME280;68864;44.972;19.612;2023-05-03T02:40:06;100759.34;;;15.35;48.86
79415;BME280;68864;44.972;19.612;2023-05-03T02:42:34;100767.34;;;15.37;48.45
79415;BME280;68864;44.972;19.612;2023-05-03T02:45:00;100767.72;;;15.32;48.89
79415;BME280;68864;44.972;19.612;2023-05-03T02:47:27;100774.72;;;15.01;49.86
79415;BME280;68864;44.972;19.612;2023-05-03T02:49:55;100779.78;;;14.81;50.75
79415;BME280;68864;44.972;19.612;2023-05-03T02:52:22;100784.19;;;14.82;50.87
79415;BME280;68864;44.972;19.612;2023-05-03T02:54:49;100789.38;;;14.80;50.76
79415;BME280;68864;44.972;19.612;2023-05-03T02:57:16;100785.78;;;14.83;50.53
79415;BME280;68864;44.972;19.612;2023-05-03T02:59:43;100791.47;;;14.90;50.76
79415;BME280;68864;44.972;19.612;2023-05-03T03:02:09;100788.72;;;14.97;50.96
79415;BME280;68864;44.972;19.612;2023-05-03T03:04:36;100785.53;;;15.02;50.46
79415;BME280;68864;44.972;19.612;2023-05-03T03:07:04;100785.16;;;15.04;50.69
79415;BME280;68864;44.972;19.612;2023-05-03T03:09:31;100785.13;;;15.00;50.21
79415;BME280;68864;44.972;19.612;2023-05-03T03:12:00;100789.09;;;14.96;50.50
79415;BME280;68864;44.972;19.612;2023-05-03T03:14:27;100787.09;;;14.96;50.68
79415;BME280;68864;44.972;19.612;2023-05-03T03:16:54;100784.28;;;14.96;50.49
79415;BME280;68864;44.972;19.612;2023-05-03T03:19:21;100793.50;;;14.97;50.78
79415;BME280;68864;44.972;19.612;2023-05-03T03:21:48;100790.75;;;15.00;50.74
79415;BME280;68864;44.972;19.612;2023-05-03T03:24:16;100789.13;;;14.99;50.44
79415;BME280;68864;44.972;19.612;2023-05-03T03:26:43;100787.50;;;14.95;50.44
79415;BME280;68864;44.972;19.612;2023-05-03T03:29:10;100785.84;;;14.90;50.39
79415;BME280;68864;44.972;19.612;2023-05-03T03:31:36;100789.44;;;14.87;50.74
79415;BME280;68864;44.972;19.612;2023-05-03T03:34:03;100798.66;;;14.88;50.81
79415;BME280;68864;44.972;19.612;2023-05-03T03:36:30;100801.47;;;14.88;51.17
79415;BME280;68864;44.972;19.612;2023-05-03T03:38:57;100803.47;;;14.87;51.31
79415;BME280;68864;44.972;19.612;2023-05-03T03:41:25;100803.47;;;14.87;50.93
79415;BME280;68864;44.972;19.612;2023-05-03T03:43:51;100803.84;;;14.86;50.87
79415;BME280;68864;44.972;19.612;2023-05-03T03:46:18;100811.03;;;14.83;51.30
79415;BME280;68864;44.972;19.612;2023-05-03T03:48:45;100823.06;;;14.84;51.22
79415;BME280;68864;44.972;19.612;2023-05-03T03:51:12;100819.44;;;14.83;51.46
79415;BME280;68864;44.972;19.612;2023-05-03T03:53:38;100818.25;;;14.81;51.58
79415;BME280;68864;44.972;19.612;2023-05-03T03:56:06;100817.88;;;14.82;51.78
79415;BME280;68864;44.972;19.612;2023-05-03T03:58:34;100825.47;;;14.82;51.73
79415;BME280;68864;44.972;19.612;2023-05-03T04:01:01;100831.50;;;14.84;51.92
79415;BME280;68864;44.972;19.612;2023-05-03T04:03:28;100826.59;;;14.74;52.83
79415;BME280;68864;44.972;19.612;2023-05-03T04:05:55;100832.47;;;14.61;53.79
79415;BME280;68864;44.972;19.612;2023-05-03T04:08:22;100841.88;;;14.43;55.07
79415;BME280;68864;44.972;19.612;2023-05-03T04:10:49;100818.59;;;14.39;55.69
79415;BME280;68864;44.972;19.612;2023-05-03T04:13:16;100833.59;;;14.53;54.72
79415;BME280;68864;44.972;19.612;2023-05-03T04:15:44;100841.63;;;14.55;56.32
79415;BME280;68864;44.972;19.612;2023-05-03T04:18:11;100842.72;;;14.47;56.84
79415;BME280;68864;44.972;19.612;2023-05-03T04:20:38;100842.56;;;14.36;57.54
79415;BME280;68864;44.972;19.612;2023-05-03T04:23:04;100849.91;;;14.44;57.28
79415;BME280;68864;44.972;19.612;2023-05-03T04:25:31;100859.66;;;14.54;57.49
79415;BME280;68864;44.972;19.612;2023-05-03T04:27:58;100856.19;;;14.67;57.64
79415;BME280;68864;44.972;19.612;2023-05-03T04:30:24;100862.72;;;14.79;57.90
79415;BME280;68864;44.972;19.612;2023-05-03T04:32:53;100874.03;;;14.89;58.46
79415;BME280;68864;44.972;19.612;2023-05-03T04:35:19;100873.28;;;14.92;59.46
79415;BME280;68864;44.972;19.612;2023-05-03T04:37:46;100887.69;;;14.91;63.10
79415;BME280;68864;44.972;19.612;2023-05-03T04:40:13;100882.59;;;15.03;60.78
79415;BME280;68864;44.972;19.612;2023-05-03T04:42:41;100886.28;;;15.11;61.96
79415;BME280;68864;44.972;19.612;2023-05-03T04:45:09;100897.59;;;15.18;61.41
79415;BME280;68864;44.972;19.612;2023-05-03T04:47:36;100893.59;;;15.19;61.42
79415;BME280;68864;44.972;19.612;2023-05-03T04:50:05;100897.28;;;15.27;61.81
79415;BME280;68864;44.972;19.612;2023-05-03T04:52:33;100889.69;;;15.31;62.44
79415;BME280;68864;44.972;19.612;2023-05-03T04:55:00;100901.78;;;15.38;61.90
79415;BME280;68864;44.972;19.612;2023-05-03T04:57:27;100892.22;;;15.46;61.90
79415;BME280;68864;44.972;19.612;2023-05-03T04:59:54;100891.84;;;15.48;62.69
79415;BME280;68864;44.972;19.612;2023-05-03T05:02:21;100901.16;;;15.56;62.50
79415;BME280;68864;44.972;19.612;2023-05-03T05:04:48;100908.03;;;15.62;62.02
79415;BME280;68864;44.972;19.612;2023-05-03T05:07:16;100902.00;;;15.63;61.81
79415;BME280;68864;44.972;19.612;2023-05-03T05:09:43;100914.09;;;15.67;62.25
79415;BME280;68864;44.972;19.612;2023-05-03T05:12:10;100911.66;;;15.66;63.80
79415;BME280;68864;44.972;19.612;2023-05-03T05:14:37;100914.88;;;15.64;63.31
79415;BME280;68864;44.972;19.612;2023-05-03T05:17:03;100914.06;;;15.64;63.63
79415;BME280;68864;44.972;19.612;2023-05-03T05:19:30;100912.88;;;15.65;63.94
79415;BME280;68864;44.972;19.612;2023-05-03T05:21:57;100909.25;;;15.64;63.64
79415;BME280;68864;44.972;19.612;2023-05-03T05:24:25;100904.47;;;15.68;63.78
79415;BME280;68864;44.972;19.612;2023-05-03T05:26:52;100902.09;;;15.74;64.18
79415;BME280;68864;44.972;19.612;2023-05-03T05:29:19;100896.09;;;15.79;63.83
79415;BME280;68864;44.972;19.612;2023-05-03T05:31:46;100887.31;;;15.84;63.25
79415;BME280;68864;44.972;19.612;2023-05-03T05:34:12;100894.16;;;15.90;63.59
79415;BME280;68864;44.972;19.612;2023-05-03T05:36:39;100891.00;;;15.99;63.32
79415;BME280;68864;44.972;19.612;2023-05-03T05:39:06;100894.28;;;16.08;63.45
79415;BME280;68864;44.972;19.612;2023-05-03T05:41:35;100901.53;;;16.16;63.38
79415;BME280;68864;44.972;19.612;2023-05-03T05:44:02;100902.00;;;16.25;63.27
79415;BME280;68864;44.972;19.612;2023-05-03T05:46:29;100896.84;;;16.34;63.75
79415;BME280;68864;44.972;19.612;2023-05-03T05:48:56;100901.69;;;16.44;63.40
79415;BME280;68864;44.972;19.612;2023-05-03T05:51:23;100910.97;;;16.52;63.65
79415;BME280;68864;44.972;19.612;2023-05-03T05:53:49;100904.19;;;16.60;63.55
79415;BME280;68864;44.972;19.612;2023-05-03T05:56:16;100909.06;;;16.66;63.53
79415;BME280;68864;44.972;19.612;2023-05-03T05:58:44;100908.69;;;16.79;63.65
79415;BME280;68864;44.972;19.612;2023-05-03T06:01:11;100904.28;;;16.92;63.26
79415;BME280;68864;44.972;19.612;2023-05-03T06:03:38;100909.16;;;16.95;63.36
79415;BME280;68864;44.972;19.612;2023-05-03T06:06:05;100915.59;;;17.06;62.85
79415;BME280;68864;44.972;19.612;2023-05-03T06:08:32;100912.34;;;16.93;64.34
79415;BME280;68864;44.972;19.612;2023-05-03T06:10:58;100916.41;;;17.06;63.06
79415;BME280;68864;44.972;19.612;2023-05-03T06:13:25;100916.03;;;17.15;62.85
79415;BME280;68864;44.972;19.612;2023-05-03T06:15:53;100910.78;;;17.24;62.53
79415;BME280;68864;44.972;19.612;2023-05-03T06:18:20;100909.59;;;17.32;62.60
79415;BME280;68864;44.972;19.612;2023-05-03T06:20:49;100913.19;;;17.36;62.95
79415;BME280;68864;44.972;19.612;2023-05-03T06:23:16;100912.81;;;17.45;62.52
79415;BME280;68864;44.972;19.612;2023-05-03T06:25:45;100914.41;;;17.49;62.71
79415;BME280;68864;44.972;19.612;2023-05-03T06:28:11;100912.81;;;17.59;62.35
79415;BME280;68864;44.972;19.612;2023-05-03T06:30:38;100914.84;;;17.66;62.08
79415;BME280;68864;44.972;19.612;2023-05-03T06:33:06;100912.44;;;17.68;62.64
79415;BME280;68864;44.972;19.612;2023-05-03T06:35:33;100919.28;;;17.74;62.64
79415;BME280;68864;44.972;19.612;2023-05-03T06:38:00;100916.47;;;17.81;62.44
79415;BME280;68864;44.972;19.612;2023-05-03T06:40:27;100920.88;;;17.93;62.08
79415;BME280;68864;44.972;19.612;2023-05-03T06:42:54;100915.59;;;18.02;61.54
79415;BME280;68864;44.972;19.612;2023-05-03T06:45:20;100914.38;;;18.10;61.76
79415;BME280;68864;44.972;19.612;2023-05-03T06:47:47;100919.59;;;18.25;61.35
79415;BME280;68864;44.972;19.612;2023-05-03T06:50:15;100915.94;;;18.32;62.01
79415;BME280;68864;44.972;19.612;2023-05-03T06:52:44;100911.47;;;18.42;60.81
79415;BME280;68864;44.972;19.612;2023-05-03T06:55:11;100913.06;;;18.43;61.15
79415;BME280;68864;44.972;19.612;2023-05-03T06:57:39;100915.44;;;18.62;60.80
79415;BME280;68864;44.972;19.612;2023-05-03T07:00:07;100921.78;;;18.84;59.37
79415;BME280;68864;44.972;19.612;2023-05-03T07:02:35;100925.03;;;18.86;59.11
79415;BME280;68864;44.972;19.612;2023-05-03T07:05:02;100931.44;;;18.90;59.09
79415;BME280;68864;44.972;19.612;2023-05-03T07:07:30;100931.81;;;18.99;58.43
79415;BME280;68864;44.972;19.612;2023-05-03T07:09:56;100930.00;;;19.30;57.44
79415;BME280;68864;44.972;19.612;2023-05-03T07:12:23;100935.69;;;19.26;57.48
79415;BME280;68864;44.972;19.612;2023-05-03T07:14:52;100943.00;;;19.17;57.60
79415;BME280;68864;44.972;19.612;2023-05-03T07:17:19;100938.94;;;19.21;56.72
79415;BME280;68864;44.972;19.612;2023-05-03T07:19:48;100943.19;;;19.99;54.85
79415;BME280;68864;44.972;19.612;2023-05-03T07:22:15;100958.19;;;20.71;53.28
79415;BME280;68864;44.972;19.612;2023-05-03T07:24:43;100959.44;;;21.30;50.46
79415;BME280;68864;44.972;19.612;2023-05-03T07:27:10;100967.00;;;21.40;50.19
79415;BME280;68864;44.972;19.612;2023-05-03T07:29:37;100969.34;;;21.46;49.29
79415;BME280;68864;44.972;19.612;2023-05-03T07:32:04;100950.13;;;21.30;48.76
79415;BME280;68864;44.972;19.612;2023-05-03T07:34:31;100950.72;;;21.14;47.34
79415;BME280;68864;44.972;19.612;2023-05-03T07:36:58;100961.53;;;20.62;45.98
79415;BME280;68864;44.972;19.612;2023-05-03T07:39:24;100971.28;;;20.20;46.57
79415;BME280;68864;44.972;19.612;2023-05-03T07:41:53;100963.13;;;19.84;46.16
79415;BME280;68864;44.972;19.612;2023-05-03T07:44:20;100981.97;;;19.50;46.73
79415;BME280;68864;44.972;19.612;2023-05-03T07:46:46;100961.88;;;19.34;46.53
79415;BME280;68864;44.972;19.612;2023-05-03T07:49:13;100981.16;;;19.50;45.97
79415;BME280;68864;44.972;19.612;2023-05-03T07:51:40;100968.63;;;19.54;46.09
79415;BME280;68864;44.972;19.612;2023-05-03T07:54:07;100960.41;;;19.70;45.59
79415;BME280;68864;44.972;19.612;2023-05-03T07:56:34;100972.56;;;19.67;45.24
79415;BME280;68864;44.972;19.612;2023-05-03T07:59:02;100964.25;;;19.46;45.48
79415;BME280;68864;44.972;19.612;2023-05-03T08:01:28;100975.19;;;19.33;45.84
79415;BME280;68864;44.972;19.612;2023-05-03T08:03:55;100978.69;;;18.86;45.36
79415;BME280;68864;44.972;19.612;2023-05-03T08:06:22;100981.13;;;18.80;46.77
79415;BME280;68864;44.972;19.612;2023-05-03T08:08:49;100971.91;;;18.65;46.19
79415;BME280;68864;44.972;19.612;2023-05-03T08:11:16;100976.78;;;18.54;46.49
79415;BME280;68864;44.972;19.612;2023-05-03T08:13:43;100988.50;;;18.35;46.86
79415;BME280;68864;44.972;19.612;2023-05-03T08:16:12;100990.94;;;18.22;47.06
79415;BME280;68864;44.972;19.612;2023-05-03T08:18:39;101006.69;;;18.06;47.30
79415;BME280;68864;44.972;19.612;2023-05-03T08:21:06;101000.25;;;17.98;48.19
79415;BME280;68864;44.972;19.612;2023-05-03T08:23:34;101001.06;;;17.92;48.74
79415;BME280;68864;44.972;19.612;2023-05-03T08:26:00;101000.22;;;17.70;48.57
79415;BME280;68864;44.972;19.612;2023-05-03T08:28:29;101011.91;;;17.75;47.87
79415;BME280;68864;44.972;19.612;2023-05-03T08:30:56;101011.50;;;17.70;47.42
79415;BME280;68864;44.972;19.612;2023-05-03T08:33:24;101012.31;;;17.67;49.46
79415;BME280;68864;44.972;19.612;2023-05-03T08:35:51;101009.91;;;17.65;47.78
79415;BME280;68864;44.972;19.612;2023-05-03T08:38:18;101017.91;;;17.60;48.62
79415;BME280;68864;44.972;19.612;2023-05-03T08:40:47;101012.28;;;17.53;48.82
79415;BME280;68864;44.972;19.612;2023-05-03T08:43:19;101014.69;;;17.51;50.54
79415;BME280;68864;44.972;19.612;2023-05-03T08:45:46;101011.44;;;17.48;50.95
79415;BME280;68864;44.972;19.612;2023-05-03T08:48:13;101011.06;;;17.46;48.46
79415;BME280;68864;44.972;19.612;2023-05-03T08:50:41;101003.38;;;17.43;49.93
79415;BME280;68864;44.972;19.612;2023-05-03T08:53:09;101006.59;;;17.42;48.72
79415;BME280;68864;44.972;19.612;2023-05-03T08:55:36;101013.03;;;17.42;49.40
79415;BME280;68864;44.972;19.612;2023-05-03T08:58:05;101001.75;;;17.25;48.59
79415;BME280;68864;44.972;19.612;2023-05-03T09:00:35;101010.63;;;17.37;50.11
79415;BME280;68864;44.972;19.612;2023-05-03T09:03:02;101006.59;;;17.38;48.78
79415;BME280;68864;44.972;19.612;2023-05-03T09:05:30;101023.50;;;17.38;47.80
79415;BME280;68864;44.972;19.612;2023-05-03T09:08:04;101004.56;;;17.35;49.23
79415;BME280;68864;44.972;19.612;2023-05-03T09:10:32;101017.88;;;17.31;46.56
79415;BME280;68864;44.972;19.612;2023-05-03T09:12:59;101022.28;;;17.29;47.17
79415;BME280;68864;44.972;19.612;2023-05-03T09:15:26;101020.69;;;17.28;47.03
79415;BME280;68864;44.972;19.612;2023-05-03T09:18:12;101017.06;;;17.31;47.37
79415;BME280;68864;44.972;19.612;2023-05-03T09:20:40;101011.44;;;17.34;48.01
79415;BME280;68864;44.972;19.612;2023-05-03T09:23:11;101013.03;;;17.42;48.53
79415;BME280;68864;44.972;19.612;2023-05-03T09:25:45;101023.53;;;17.49;48.01
79415;BME280;68864;44.972;19.612;2023-05-03T09:28:12;101013.88;;;17.54;48.17
79415;BME280;68864;44.972;19.612;2023-05-03T09:30:40;101021.56;;;17.60;47.53
79415;BME280;68864;44.972;19.612;2023-05-03T09:33:06;101019.91;;;17.48;46.47
79415;BME280;68864;44.972;19.612;2023-05-03T09:35:33;101028.78;;;17.58;47.30
79415;BME280;68864;44.972;19.612;2023-05-03T09:38:00;101019.13;;;17.59;47.59
79415;BME280;68864;44.972;19.612;2023-05-03T09:40:28;101011.06;;;17.54;46.48
79415;BME280;68864;44.972;19.612;2023-05-03T09:43:09;101025.22;;;17.61;46.96
79415;BME280;68864;44.972;19.612;2023-05-03T09:45:36;101016.28;;;17.55;46.48
79415;BME280;68864;44.972;19.612;2023-05-03T09:48:05;101011.47;;;17.52;46.84
79415;BME280;68864;44.972;19.612;2023-05-03T09:50:33;101011.03;;;17.50;45.69
79415;BME280;68864;44.972;19.612;2023-05-03T09:53:01;101020.28;;;17.43;46.40
79415;BME280;68864;44.972;19.612;2023-05-03T09:55:34;101019.50;;;17.43;46.27
79415;BME280;68864;44.972;19.612;2023-05-03T09:58:01;101019.91;;;17.41;46.71
79415;BME280;68864;44.972;19.612;2023-05-03T10:00:33;101014.66;;;17.40;46.57
79415;BME280;68864;44.972;19.612;2023-05-03T10:03:06;101015.88;;;17.46;47.03
79415;BME280;68864;44.972;19.612;2023-05-03T10:05:35;101011.81;;;17.36;46.80
79415;BME280;68864;44.972;19.612;2023-05-03T10:08:06;101011.47;;;17.52;45.95
79415;BME280;68864;44.972;19.612;2023-05-03T10:10:38;101001.06;;;17.67;45.65
79415;BME280;68864;44.972;19.612;2023-05-03T10:13:06;100997.00;;;17.82;45.19
79415;BME280;68864;44.972;19.612;2023-05-03T10:15:33;100995.00;;;18.04;45.39
79415;BME280;68864;44.972;19.612;2023-05-03T10:18:03;100994.56;;;18.26;44.92
79415;BME280;68864;44.972;19.612;2023-05-03T10:20:37;100997.75;;;18.43;43.94
79415;BME280;68864;44.972;19.612;2023-05-03T10:23:12;100984.84;;;18.59;44.16
79415;BME280;68864;44.972;19.612;2023-05-03T10:26:13;100991.22;;;18.81;43.55
79415;BME280;68864;44.972;19.612;2023-05-03T10:28:40;100981.47;;;18.89;42.39
79415;BME280;68864;44.972;19.612;2023-05-03T10:34:18;100981.03;;;19.01;40.72
79415;BME280;68864;44.972;19.612;2023-05-03T10:36:46;100981.38;;;19.14;42.53
79415;BME280;68864;44.972;19.612;2023-05-03T10:39:13;100985.38;;;19.17;40.95
79415;BME280;68864;44.972;19.612;2023-05-03T10:41:41;100993.06;;;19.20;41.01
79415;BME280;68864;44.972;19.612;2023-05-03T10:44:26;100971.66;;;19.15;39.72
79415;BME280;68864;44.972;19.612;2023-05-03T10:46:53;100977.75;;;19.10;40.92
79415;BME280;68864;44.972;19.612;2023-05-03T10:49:22;100977.31;;;19.15;40.66
79415;BME280;68864;44.972;19.612;2023-05-03T10:51:50;100964.38;;;19.18;40.15
79415;BME280;68864;44.972;19.612;2023-05-03T10:54:17;100983.75;;;19.19;40.04
79415;BME280;68864;44.972;19.612;2023-05-03T10:59:45;100972.06;;;19.21;40.83
79415;BME280;68864;44.972;19.612;2023-05-03T11:02:15;100973.19;;;19.34;40.73
79415;BME280;68864;44.972;19.612;2023-05-03T11:04:46;100972.28;;;19.44;40.63
79415;BME280;68864;44.972;19.612;2023-05-03T11:07:19;100964.25;;;19.46;39.98
79415;BME280;68864;44.972;19.612;2023-05-03T11:09:47;100963.75;;;19.58;40.97
79415;BME280;68864;44.972;19.612;2023-05-03T11:12:13;100964.09;;;19.64;39.35
79415;BME280;68864;44.972;19.612;2023-05-03T11:14:42;100968.13;;;19.66;39.95
79415;BME280;68864;44.972;19.612;2023-05-03T11:17:08;100971.66;;;19.77;39.79
79415;BME280;68864;44.972;19.612;2023-05-03T11:19:35;100962.31;;;19.88;39.34
79415;BME280;68864;44.972;19.612;2023-05-03T11:22:04;100970.28;;;19.96;38.27
79415;BME280;68864;44.972;19.612;2023-05-03T11:24:31;100961.78;;;19.96;37.57
79415;BME280;68864;44.972;19.612;2023-05-03T11:26:58;100971.88;;;20.01;38.27
79415;BME280;68864;44.972;19.612;2023-05-03T11:29:25;100967.09;;;19.94;37.90
79415;BME280;68864;44.972;19.612;2023-05-03T11:31:54;100952.91;;;19.98;37.54
79415;BME280;68864;44.972;19.612;2023-05-03T11:34:21;100959.81;;;19.93;37.26
79415;BME280;68864;44.972;19.612;2023-05-03T11:36:48;100969.88;;;19.98;37.26
79415;BME280;68864;44.972;19.612;2023-05-03T11:39:15;100964.34;;;19.83;36.53
79415;BME280;68864;44.972;19.612;2023-05-03T11:41:42;100955.09;;;19.79;37.05
79415;BME280;68864;44.972;19.612;2023-05-03T11:44:09;100979.78;;;19.72;36.98
79415;BME280;68864;44.972;19.612;2023-05-03T11:46:36;100950.34;;;19.66;36.82
79415;BME280;68864;44.972;19.612;2023-05-03T11:49:05;100966.13;;;19.63;36.60
79415;BME280;68864;44.972;19.612;2023-05-03T11:51:33;100959.22;;;19.68;37.02
79415;BME280;68864;44.972;19.612;2023-05-03T11:54:00;100951.91;;;19.74;37.42
79415;BME280;68864;44.972;19.612;2023-05-03T11:56:28;100957.06;;;19.86;37.30
79415;BME280;68864;44.972;19.612;2023-05-03T11:58:57;100958.22;;;19.89;37.55
79415;BME280;68864;44.972;19.612;2023-05-03T12:01:26;100978.81;;;19.93;36.69
79415;BME280;68864;44.972;19.612;2023-05-03T12:03:55;100956.63;;;19.88;37.03
79415;BME280;68864;44.972;19.612;2023-05-03T12:06:23;100955.09;;;19.79;37.05
79415;BME280;68864;44.972;19.612;2023-05-03T12:08:51;100957.13;;;19.75;37.30
79415;BME280;68864;44.972;19.612;2023-05-03T12:11:18;100953.25;;;19.59;37.66
79415;BME280;68864;44.972;19.612;2023-05-03T12:13:45;100958.38;;;19.74;37.79
79415;BME280;68864;44.972;19.612;2023-05-03T12:16:11;100957.09;;;19.79;37.60
79415;BME280;68864;44.972;19.612;2023-05-03T12:18:48;100950.00;;;19.60;36.83
79415;BME280;68864;44.972;19.612;2023-05-03T12:21:19;100944.34;;;19.60;37.03
79415;BME280;68864;44.972;19.612;2023-05-03T12:23:47;100949.19;;;19.56;37.25
79415;BME280;68864;44.972;19.612;2023-05-03T12:26:15;100949.25;;;19.49;37.35
79415;BME280;68864;44.972;19.612;2023-05-03T12:28:43;100964.31;;;19.32;37.58
79415;BME280;68864;44.972;19.612;2023-05-03T12:31:10;100951.41;;;19.27;38.24
79415;BME280;68864;44.972;19.612;2023-05-03T12:33:36;100936.09;;;19.25;37.98
79415;BME280;68864;44.972;19.612;2023-05-03T12:36:04;100972.88;;;19.21;37.65
79415;BME280;68864;44.972;19.612;2023-05-03T12:38:31;100953.06;;;19.21;37.95
79415;BME280;68864;44.972;19.612;2023-05-03T12:41:00;100942.59;;;19.15;37.62
79415;BME280;68864;44.972;19.612;2023-05-03T12:43:39;100953.91;;;19.18;37.13
79415;BME280;68864;44.972;19.612;2023-05-03T12:46:20;100918.34;;;19.21;37.65
79415;BME280;68864;44.972;19.612;2023-05-03T12:48:48;100918.66;;;19.33;37.92
79415;BME280;68864;44.972;19.612;2023-05-03T12:51:15;100921.84;;;19.46;38.60